createdAt,value
2018-05-01T00:02:03.122Z,7.70
2018-05-01T00:04:31.419Z,7.70
2018-05-01T00:06:59.744Z,7.60
2018-05-01T00:09:28.044Z,7.60
2018-05-01T00:11:56.366Z,7.60
2018-05-01T00:14:24.644Z,7.60
2018-05-01T00:16:52.985Z,7.70
2018-05-01T00:19:22.041Z,7.60
2018-05-01T00:21:50.351Z,7.60
2018-05-01T00:24:18.631Z,7.60
2018-05-01T00:26:46.951Z,7.60
2018-05-01T00:29:15.229Z,7.60
2018-05-01T00:31:43.532Z,7.60
2018-05-01T00:34:11.867Z,7.50
2018-05-01T00:36:40.236Z,7.50
2018-05-01T00:39:08.550Z,7.50
2018-05-01T00:41:36.884Z,7.40
2018-05-01T00:44:05.286Z,7.40
2018-05-01T00:46:33.662Z,7.40
2018-05-01T00:49:02.081Z,7.40
2018-05-01T00:51:30.489Z,7.40
2018-05-01T00:53:58.949Z,7.40
2018-05-01T00:56:27.378Z,7.40
2018-05-01T00:58:55.772Z,7.40
2018-05-01T01:01:24.121Z,7.40
2018-05-01T01:03:53.316Z,7.40
2018-05-01T01:06:21.697Z,7.40
2018-05-01T01:08:50.851Z,7.40
2018-05-01T01:11:19.162Z,7.40
2018-05-01T01:13:48.317Z,7.40
2018-05-01T01:16:16.594Z,7.40
2018-05-01T01:18:44.916Z,7.40
2018-05-01T01:21:13.196Z,7.40
2018-05-01T01:23:41.524Z,7.40
2018-05-01T01:26:09.796Z,7.40
2018-05-01T01:28:38.103Z,7.40
2018-05-01T01:31:06.373Z,7.40
2018-05-01T01:33:34.684Z,7.50
2018-05-01T01:36:03.238Z,7.50
2018-05-01T01:38:31.146Z,7.50
2018-05-01T01:40:58.976Z,7.50
2018-05-01T01:43:26.884Z,7.50
2018-05-01T01:45:54.764Z,7.40
2018-05-01T01:48:22.663Z,7.30
2018-05-01T01:50:50.474Z,7.30
2018-05-01T01:53:19.053Z,7.20
2018-05-01T01:55:46.857Z,7.20
2018-05-01T01:58:14.665Z,7.30
2018-05-01T02:00:42.504Z,7.20
2018-05-01T02:03:10.304Z,7.20
2018-05-01T02:05:38.908Z,7.20
2018-05-01T02:08:06.724Z,7.20
2018-05-01T02:10:34.559Z,7.30
2018-05-01T02:13:02.343Z,7.30
2018-05-01T02:15:30.154Z,7.20
2018-05-01T02:17:58.732Z,7.30
2018-05-01T02:20:26.544Z,7.20
2018-05-01T02:22:54.328Z,7.20
2018-05-01T02:25:22.141Z,7.20
2018-05-01T02:27:49.957Z,7.20
2018-05-01T02:30:17.917Z,7.20
2018-05-01T02:32:45.845Z,7.20
2018-05-01T02:35:13.794Z,7.20
2018-05-01T02:37:41.665Z,7.20
2018-05-01T02:40:09.542Z,7.20
2018-05-01T02:42:37.383Z,7.20
2018-05-01T02:45:06.116Z,7.20
2018-05-01T02:47:33.972Z,7.20
2018-05-01T02:50:02.601Z,7.20
2018-05-01T02:52:30.439Z,7.20
2018-05-01T02:54:58.377Z,7.20
2018-05-01T02:57:26.293Z,7.20
2018-05-01T02:59:54.180Z,7.20
2018-05-01T03:02:22.043Z,7.20
2018-05-01T03:04:49.956Z,7.20
2018-05-01T03:07:17.801Z,7.20
2018-05-01T03:09:45.776Z,7.20
2018-05-01T03:12:13.556Z,7.20
2018-05-01T03:14:42.189Z,7.20
2018-05-01T03:17:09.973Z,7.20
2018-05-01T03:19:37.800Z,7.30
2018-05-01T03:22:05.595Z,7.20
2018-05-01T03:24:33.434Z,7.20
2018-05-01T03:27:01.241Z,7.20
2018-05-01T03:29:29.048Z,7.30
2018-05-01T03:31:56.885Z,7.30
2018-05-01T03:34:24.672Z,7.30
2018-05-01T03:36:53.261Z,7.30
2018-05-01T03:39:21.828Z,7.30
2018-05-01T03:41:49.644Z,7.30
2018-05-01T03:44:17.442Z,7.20
2018-05-01T03:46:45.266Z,7.20
2018-05-01T03:49:13.056Z,7.20
2018-05-01T03:51:40.893Z,7.20
2018-05-01T03:54:08.704Z,7.20
2018-05-01T03:56:36.541Z,7.20
2018-05-01T03:59:04.345Z,7.20
2018-05-01T04:01:32.949Z,7.20
2018-05-01T04:04:01.513Z,7.20
2018-05-01T04:06:29.340Z,7.10
2018-05-01T04:08:57.999Z,7.20
2018-05-01T04:11:26.591Z,7.30
2018-05-01T04:13:55.136Z,7.30
2018-05-01T04:16:22.949Z,7.30
2018-05-01T04:18:50.755Z,7.20
2018-05-01T04:21:18.609Z,7.20
2018-05-01T04:23:46.480Z,7.30
2018-05-01T04:26:14.331Z,7.30
2018-05-01T04:28:42.179Z,7.30
2018-05-01T04:31:10.038Z,7.30
2018-05-01T04:33:37.866Z,7.30
2018-05-01T04:36:06.514Z,7.30
2018-05-01T04:38:34.372Z,7.30
2018-05-01T04:41:02.221Z,7.30
2018-05-01T04:43:30.110Z,7.40
2018-05-01T04:45:58.029Z,7.40
2018-05-01T04:48:26.659Z,7.40
2018-05-01T04:50:54.533Z,7.40
2018-05-01T04:53:22.388Z,7.40
2018-05-01T04:55:50.272Z,7.40
2018-05-01T04:58:18.147Z,7.40
2018-05-01T05:00:45.942Z,7.40
2018-05-01T05:03:13.768Z,7.40
2018-05-01T05:05:41.574Z,7.40
2018-05-01T05:08:09.406Z,7.40
2018-05-01T05:10:37.229Z,7.40
2018-05-01T05:13:05.101Z,7.40
2018-05-01T05:15:33.728Z,7.50
2018-05-01T05:18:01.638Z,7.40
2018-05-01T05:20:29.505Z,7.40
2018-05-01T05:22:58.208Z,7.40
2018-05-01T05:25:26.063Z,7.40
2018-05-01T05:27:54.729Z,7.50
2018-05-01T05:30:22.594Z,7.50
2018-05-01T05:32:50.424Z,7.50
2018-05-01T05:35:18.242Z,7.50
2018-05-01T05:37:46.070Z,7.50
2018-05-01T05:40:13.877Z,7.60
2018-05-01T05:42:42.481Z,7.70
2018-05-01T05:45:10.302Z,7.70
2018-05-01T05:47:38.146Z,7.60
2018-05-01T05:50:05.962Z,7.60
2018-05-01T05:52:34.549Z,7.70
2018-05-01T05:55:02.343Z,7.70
2018-05-01T05:57:30.166Z,7.70
2018-05-01T05:59:57.957Z,7.70
2018-05-01T06:02:25.772Z,7.80
2018-05-01T06:04:54.329Z,7.90
2018-05-01T06:07:22.160Z,7.90
2018-05-01T06:09:50.729Z,8.00
2018-05-01T06:12:18.540Z,7.90
2018-05-01T06:14:46.344Z,8.00
2018-05-01T06:17:14.153Z,8.00
2018-05-01T06:19:42.704Z,8.10
2018-05-01T06:22:10.555Z,8.10
2018-05-01T06:24:38.372Z,8.10
2018-05-01T06:27:06.161Z,8.10
2018-05-01T06:29:33.984Z,8.20
2018-05-01T06:32:01.797Z,8.20
2018-05-01T06:34:29.622Z,8.20
2018-05-01T06:36:58.200Z,8.30
2018-05-01T06:39:26.800Z,8.40
2018-05-01T06:41:55.352Z,8.40
2018-05-01T06:44:23.175Z,8.40
2018-05-01T06:46:50.970Z,8.50
2018-05-01T06:49:18.780Z,8.50
2018-05-01T06:51:47.345Z,8.40
2018-05-01T06:54:15.965Z,8.40
2018-05-01T06:56:43.753Z,8.40
2018-05-01T06:59:11.597Z,8.30
2018-05-01T07:01:39.428Z,8.20
2018-05-01T07:04:07.353Z,8.20
2018-05-01T07:06:35.283Z,8.20
2018-05-01T07:09:03.249Z,8.30
2018-05-01T07:11:31.892Z,8.40
2018-05-01T07:13:59.793Z,8.30
2018-05-01T07:16:28.378Z,8.60
2018-05-01T07:18:56.983Z,8.70
2018-05-01T07:21:24.773Z,8.70
2018-05-01T07:23:52.584Z,8.70
2018-05-01T07:26:20.385Z,8.70
2018-05-01T07:28:48.196Z,8.70
2018-05-01T07:31:15.985Z,8.70
2018-05-01T07:33:44.664Z,8.70
2018-05-01T07:36:13.252Z,8.80
2018-05-01T07:38:41.055Z,8.80
2018-05-01T07:41:08.869Z,8.80
2018-05-01T07:43:36.697Z,8.80
2018-05-01T07:46:04.486Z,8.70
2018-05-01T07:48:32.318Z,8.70
2018-05-01T07:51:00.099Z,8.60
2018-05-01T07:53:27.909Z,8.70
2018-05-01T07:55:55.749Z,8.70
2018-05-01T07:58:24.390Z,8.70
2018-05-01T08:00:52.312Z,8.70
2018-05-01T08:03:20.172Z,8.70
2018-05-01T08:05:48.051Z,8.70
2018-05-01T08:08:16.664Z,8.80
2018-05-01T08:10:44.548Z,8.80
2018-05-01T08:13:12.418Z,8.90
2018-05-01T08:15:40.316Z,8.90
2018-05-01T08:18:08.154Z,9.00
2018-05-01T08:20:36.034Z,9.00
2018-05-01T08:23:03.960Z,9.00
2018-05-01T08:25:32.611Z,9.00
2018-05-01T08:28:00.452Z,8.90
2018-05-01T08:30:28.396Z,9.00
2018-05-01T08:32:56.209Z,9.00
2018-05-01T08:35:24.864Z,9.10
2018-05-01T08:37:52.718Z,9.10
2018-05-01T08:40:20.573Z,9.20
2018-05-01T08:42:48.437Z,9.30
2018-05-01T08:45:17.145Z,9.40
2018-05-01T08:47:44.989Z,9.40
2018-05-01T08:50:13.669Z,9.40
2018-05-01T08:52:41.539Z,9.40
2018-05-01T08:55:09.393Z,9.40
2018-05-01T08:57:37.180Z,9.50
2018-05-01T09:00:05.751Z,9.70
2018-05-01T09:02:33.540Z,9.70
2018-05-01T09:05:02.134Z,10.10
2018-05-01T09:07:29.928Z,10.10
2018-05-01T09:09:57.744Z,10.30
2018-05-01T09:12:25.549Z,10.40
2018-05-01T09:14:53.392Z,10.40
2018-05-01T09:17:21.181Z,10.40
2018-05-01T09:19:48.964Z,10.30
2018-05-01T09:22:16.789Z,10.30
2018-05-01T09:24:44.598Z,10.20
2018-05-01T09:27:12.420Z,10.20
2018-05-01T09:29:40.210Z,10.20
2018-05-01T09:32:08.032Z,10.20
2018-05-01T09:34:36.593Z,10.20
2018-05-01T09:37:04.436Z,10.20
2018-05-01T09:39:32.232Z,10.20
2018-05-01T09:42:00.102Z,10.20
2018-05-01T09:44:27.873Z,10.20
2018-05-01T09:46:55.689Z,10.10
2018-05-01T09:49:23.488Z,10.20
2018-05-01T09:51:51.314Z,10.30
2018-05-01T09:54:19.605Z,10.40
2018-05-01T09:56:47.916Z,10.60
2018-05-01T09:59:16.288Z,10.70
2018-05-01T10:01:44.600Z,10.80
2018-05-01T10:04:12.919Z,10.70
2018-05-01T10:06:41.324Z,10.70
2018-05-01T10:09:09.626Z,10.70
2018-05-01T10:11:38.712Z,10.60
2018-05-01T10:14:06.992Z,10.60
2018-05-01T10:16:36.071Z,10.70
2018-05-01T10:19:04.373Z,10.60
2018-05-01T10:21:33.456Z,10.90
2018-05-01T10:24:01.740Z,10.90
2018-05-01T10:26:30.825Z,10.90
2018-05-01T10:28:59.136Z,10.90
2018-05-01T10:31:27.448Z,11.00
2018-05-01T10:33:55.745Z,11.10
2018-05-01T10:36:24.059Z,11.20
2018-05-01T10:38:53.123Z,11.10
2018-05-01T10:41:21.424Z,11.10
2018-05-01T10:43:50.475Z,11.20
2018-05-01T10:46:18.765Z,11.20
2018-05-01T10:48:47.072Z,11.40
2018-05-01T10:51:16.125Z,11.70
2018-05-01T10:53:44.436Z,11.70
2018-05-01T10:56:12.721Z,11.90
2018-05-01T10:58:41.812Z,12.10
2018-05-01T11:01:10.856Z,12.20
2018-05-01T11:03:39.176Z,12.20
2018-05-01T11:06:07.468Z,12.30
2018-05-01T11:08:36.538Z,12.50
2018-05-01T11:11:04.816Z,12.50
2018-05-01T11:13:33.136Z,12.50
2018-05-01T11:16:01.416Z,12.40
2018-05-01T11:18:29.728Z,12.40
2018-05-01T11:20:58.024Z,12.40
2018-05-01T11:23:26.345Z,12.40
2018-05-01T11:25:54.653Z,12.50
2018-05-01T11:28:22.960Z,12.80
2018-05-01T11:30:51.257Z,13.10
2018-05-01T11:33:20.345Z,13.00
2018-05-01T11:35:49.409Z,12.90
2018-05-01T11:38:17.726Z,12.80
2018-05-01T11:40:46.777Z,12.70
2018-05-01T11:43:15.085Z,12.70
2018-05-01T11:45:43.378Z,12.70
2018-05-01T11:48:12.456Z,12.60
2018-05-01T11:50:40.745Z,12.60
2018-05-01T11:53:09.073Z,12.80
2018-05-01T11:55:37.348Z,12.90
2018-05-01T11:58:05.665Z,13.10
2018-05-01T12:00:33.944Z,13.30
2018-05-01T12:03:03.027Z,13.50
2018-05-01T12:05:31.326Z,13.50
2018-05-01T12:07:59.638Z,13.50
2018-05-01T12:10:28.026Z,13.40
2018-05-01T12:12:56.328Z,13.30
2018-05-01T12:15:25.459Z,13.00
2018-05-01T12:17:54.620Z,12.90
2018-05-01T12:20:23.000Z,12.90
2018-05-01T12:22:51.338Z,12.90
2018-05-01T12:25:19.734Z,12.90
2018-05-01T12:27:53.972Z,12.90
2018-05-01T12:30:22.321Z,13.00
2018-05-01T12:32:50.664Z,13.20
2018-05-01T12:35:19.832Z,13.40
2018-05-01T12:37:48.295Z,13.40
2018-05-01T12:40:16.696Z,13.50
2018-05-01T12:42:45.016Z,13.40
2018-05-01T12:45:13.341Z,13.40
2018-05-01T12:47:41.620Z,13.40
2018-05-01T12:50:09.929Z,13.40
2018-05-01T12:52:38.984Z,13.50
2018-05-01T12:55:07.298Z,13.50
2018-05-01T12:57:36.384Z,13.80
2018-05-01T13:00:04.692Z,13.70
2018-05-01T13:02:32.976Z,13.90
2018-05-01T13:05:01.385Z,14.00
2018-05-01T13:07:29.593Z,14.10
2018-05-01T13:09:57.905Z,14.20
2018-05-01T13:12:26.225Z,14.30
2018-05-01T13:14:54.504Z,14.40
2018-05-01T13:17:22.812Z,14.50
2018-05-01T13:19:51.129Z,14.50
2018-05-01T13:22:19.421Z,14.20
2018-05-01T13:24:47.733Z,14.10
2018-05-01T13:27:16.066Z,14.10
2018-05-01T13:29:45.116Z,13.90
2018-05-01T13:32:13.404Z,13.90
2018-05-01T13:34:42.489Z,13.80
2018-05-01T13:37:10.772Z,13.70
2018-05-01T13:39:39.848Z,14.20
2018-05-01T13:42:08.146Z,14.20
2018-05-01T13:44:37.236Z,14.30
2018-05-01T13:47:05.515Z,14.20
2018-05-01T13:49:33.830Z,14.20
2018-05-01T13:52:02.107Z,14.10
2018-05-01T13:54:30.429Z,14.10
2018-05-01T13:56:58.717Z,14.10
2018-05-01T13:59:27.809Z,14.30
2018-05-01T14:01:56.092Z,14.30
2018-05-01T14:04:24.508Z,14.80
2018-05-01T14:06:52.775Z,15.30
2018-05-01T14:09:21.065Z,15.50
2018-05-01T14:11:49.381Z,15.60
2018-05-01T14:14:17.672Z,16.00
2018-05-01T14:16:46.060Z,16.30
2018-05-01T14:19:14.329Z,16.80
2018-05-01T14:21:42.656Z,17.20
2018-05-01T14:24:10.951Z,17.40
2018-05-01T14:26:39.265Z,17.70
2018-05-01T14:29:07.567Z,17.90
2018-05-01T14:31:35.888Z,17.90
2018-05-01T14:34:04.163Z,18.00
2018-05-01T14:36:32.485Z,18.00
2018-05-01T14:39:01.541Z,18.30
2018-05-01T14:41:29.876Z,18.30
2018-05-01T14:43:58.161Z,18.10
2018-05-01T14:46:26.475Z,17.90
2018-05-01T14:48:54.760Z,17.90
2018-05-01T14:51:23.069Z,18.00
2018-05-01T14:53:52.304Z,17.60
2018-05-01T14:56:20.768Z,17.60
2018-05-01T14:58:49.136Z,17.40
2018-05-01T15:01:17.515Z,17.10
2018-05-01T15:03:46.631Z,16.60
2018-05-01T15:06:15.008Z,16.50
2018-05-01T15:08:43.371Z,16.30
2018-05-01T15:11:11.714Z,16.20
2018-05-01T15:13:40.076Z,16.00
2018-05-01T15:16:08.487Z,16.10
2018-05-01T15:18:36.884Z,16.30
2018-05-01T15:21:06.068Z,16.20
2018-05-01T15:23:35.255Z,15.90
2018-05-01T15:26:03.624Z,15.90
2018-05-01T15:28:32.016Z,15.70
2018-05-01T15:31:00.329Z,15.60
2018-05-01T15:33:28.630Z,15.60
2018-05-01T15:35:56.944Z,15.50
2018-05-01T15:38:25.233Z,15.80
2018-05-01T15:40:53.542Z,16.40
2018-05-01T15:43:21.825Z,16.80
2018-05-01T15:45:50.117Z,17.10
2018-05-01T15:48:18.436Z,17.20
2018-05-01T15:50:46.730Z,17.10
2018-05-01T15:53:15.048Z,17.30
2018-05-01T15:55:43.369Z,17.50
2018-05-01T15:58:11.697Z,17.70
2018-05-01T16:00:40.000Z,17.70
2018-05-01T16:03:08.312Z,17.70
2018-05-01T16:05:37.359Z,17.90
2018-05-01T16:08:05.680Z,17.90
2018-05-01T16:10:33.969Z,18.20
2018-05-01T16:13:03.044Z,17.50
2018-05-01T16:15:31.332Z,17.50
2018-05-01T16:18:00.479Z,17.80
2018-05-01T16:20:28.813Z,17.70
2018-05-01T16:22:57.991Z,18.30
2018-05-01T16:25:26.321Z,18.30
2018-05-01T16:27:54.673Z,18.40
2018-05-01T16:30:23.798Z,18.60
2018-05-01T16:32:52.215Z,18.60
2018-05-01T16:35:20.568Z,18.60
2018-05-01T16:37:48.970Z,18.60
2018-05-01T16:40:17.413Z,18.70
2018-05-01T16:42:45.701Z,18.70
2018-05-01T16:45:14.030Z,18.70
2018-05-01T16:47:43.218Z,18.80
2018-05-01T16:50:11.572Z,18.70
2018-05-01T16:52:39.918Z,18.90
2018-05-01T16:55:08.272Z,18.90
2018-05-01T16:57:37.396Z,18.80
2018-05-01T17:00:05.722Z,18.70
2018-05-01T17:02:34.139Z,18.60
2018-05-01T17:05:02.476Z,18.60
2018-05-01T17:07:30.860Z,18.60
2018-05-01T17:09:59.197Z,18.50
2018-05-01T17:12:27.552Z,18.20
2018-05-01T17:14:55.896Z,17.80
2018-05-01T17:17:25.074Z,16.80
2018-05-01T17:19:53.428Z,16.80
2018-05-01T17:22:21.713Z,16.50
2018-05-01T17:24:50.028Z,16.30
2018-05-01T17:27:18.320Z,16.00
2018-05-01T17:29:46.673Z,15.70
2018-05-01T17:32:15.073Z,15.60
2018-05-01T17:34:44.296Z,15.30
2018-05-01T17:37:12.652Z,15.30
2018-05-01T17:39:41.764Z,15.00
2018-05-01T17:42:10.884Z,14.90
2018-05-01T17:44:39.223Z,14.90
2018-05-01T17:47:07.504Z,14.80
2018-05-01T17:49:35.823Z,14.80
2018-05-01T17:52:04.121Z,14.60
2018-05-01T17:54:32.428Z,14.50
2018-05-01T17:57:00.717Z,14.40
2018-05-01T17:59:29.804Z,14.10
2018-05-01T18:01:58.101Z,14.10
2018-05-01T18:04:27.177Z,13.80
2018-05-01T18:06:55.471Z,13.80
2018-05-01T18:09:23.789Z,13.70
2018-05-01T18:11:52.064Z,13.60
2018-05-01T18:14:20.380Z,13.50
2018-05-01T18:16:48.672Z,13.40
2018-05-01T18:19:17.772Z,13.00
2018-05-01T18:21:46.811Z,12.80
2018-05-01T18:24:15.133Z,12.70
2018-05-01T18:26:44.193Z,12.60
2018-05-01T18:29:12.510Z,12.60
2018-05-01T18:31:41.564Z,12.10
2018-05-01T18:34:09.876Z,12.10
2018-05-01T18:36:38.174Z,12.00
2018-05-01T18:39:07.239Z,11.70
2018-05-01T18:41:35.520Z,11.70
2018-05-01T18:44:03.848Z,11.60
2018-05-01T18:46:32.141Z,11.50
2018-05-01T18:49:00.472Z,11.50
2018-05-01T18:51:29.516Z,11.60
2018-05-01T18:53:57.837Z,11.60
2018-05-01T18:56:26.883Z,11.60
2018-05-01T18:58:55.168Z,11.50
2018-05-01T19:01:23.499Z,11.50
2018-05-01T19:03:52.533Z,11.50
2018-05-01T19:06:21.617Z,11.40
2018-05-01T19:08:49.914Z,11.40
2018-05-01T19:11:18.228Z,11.30
2018-05-01T19:13:47.276Z,11.20
2018-05-01T19:16:15.578Z,11.10
2018-05-01T19:18:43.865Z,11.10
2018-05-01T19:21:12.174Z,11.10
2018-05-01T19:23:40.452Z,11.10
2018-05-01T19:26:08.764Z,11.00
2018-05-01T19:28:37.057Z,10.90
2018-05-01T19:31:05.369Z,10.80
2018-05-01T19:33:34.428Z,10.60
2018-05-01T19:36:02.756Z,10.50
2018-05-01T19:38:31.124Z,10.50
2018-05-01T19:40:59.474Z,10.50
2018-05-01T19:43:27.797Z,10.40
2018-05-01T19:45:56.148Z,10.30
2018-05-01T19:48:24.507Z,10.30
2018-05-01T19:50:53.694Z,10.20
2018-05-01T19:53:22.067Z,10.20
2018-05-01T19:55:50.479Z,10.20
2018-05-01T19:58:19.615Z,10.10
2018-05-01T20:00:48.014Z,10.10
2018-05-01T20:03:16.384Z,10.00
2018-05-01T20:05:44.735Z,10.00
2018-05-01T20:08:13.058Z,9.90
2018-05-01T20:10:42.282Z,9.90
2018-05-01T20:13:11.394Z,9.70
2018-05-01T20:15:40.580Z,9.70
2018-05-01T20:18:08.921Z,9.70
2018-05-01T20:20:37.288Z,9.60
2018-05-01T20:23:05.669Z,9.60
2018-05-01T20:25:33.975Z,9.50
2018-05-01T20:28:02.244Z,9.40
2018-05-01T20:30:30.582Z,9.40
2018-05-01T20:32:58.883Z,9.30
2018-05-01T20:35:27.196Z,9.20
2018-05-01T20:37:55.464Z,9.10
2018-05-01T20:40:23.765Z,8.90
2018-05-01T20:42:52.049Z,8.70
2018-05-01T20:45:20.370Z,8.70
2018-05-01T20:47:48.654Z,8.80
2018-05-01T20:50:16.931Z,8.80
2018-05-01T20:52:45.237Z,8.70
2018-05-01T20:55:13.514Z,8.70
2018-05-01T20:57:41.818Z,8.70
2018-05-01T21:00:10.864Z,8.70
2018-05-01T21:02:39.173Z,8.60
2018-05-01T21:05:07.505Z,8.60
2018-05-01T21:07:35.827Z,8.60
2018-05-01T21:10:04.103Z,8.60
2018-05-01T21:12:32.415Z,8.60
2018-05-01T21:15:00.693Z,8.60
2018-05-01T21:17:29.000Z,8.50
2018-05-01T21:19:57.271Z,8.50
2018-05-01T21:22:25.580Z,8.40
2018-05-01T21:24:53.872Z,8.30
2018-05-01T21:27:22.189Z,8.20
2018-05-01T21:29:50.476Z,8.20
2018-05-01T21:32:18.790Z,8.20
2018-05-01T21:34:47.077Z,8.20
2018-05-01T21:37:15.387Z,8.10
2018-05-01T21:39:43.683Z,7.90
2018-05-01T21:42:12.000Z,7.60
2018-05-01T21:44:40.272Z,7.40
2018-05-01T21:47:08.589Z,7.50
2018-05-01T21:49:37.634Z,7.70
2018-05-01T21:52:05.933Z,7.60
2018-05-01T21:54:34.211Z,7.70
2018-05-01T21:57:02.525Z,7.80
2018-05-01T21:59:30.817Z,7.70
2018-05-01T22:01:59.133Z,7.70
2018-05-01T22:04:27.416Z,7.80
2018-05-01T22:06:55.712Z,7.80
2018-05-01T22:09:24.771Z,7.50
2018-05-01T22:11:53.107Z,7.50
2018-05-01T22:14:21.453Z,7.50
2018-05-01T22:16:49.808Z,7.50
2018-05-01T22:19:18.150Z,7.50
2018-05-01T22:21:46.455Z,7.50
2018-05-01T22:24:14.764Z,7.50
2018-05-01T22:26:43.825Z,6.80
2018-05-01T22:29:12.130Z,6.80
2018-05-01T22:31:40.401Z,6.80
2018-05-01T22:34:08.712Z,6.80
2018-05-01T22:36:36.996Z,6.80
2018-05-01T22:39:05.328Z,6.90
2018-05-01T22:41:33.600Z,6.90
2018-05-01T22:44:01.913Z,7.00
2018-05-01T22:46:30.959Z,7.10
2018-05-01T22:48:59.273Z,7.10
2018-05-01T22:51:27.541Z,7.10
2018-05-01T22:53:55.845Z,7.20
2018-05-01T22:56:24.121Z,7.10
2018-05-01T22:58:52.420Z,7.20
2018-05-01T23:01:20.693Z,7.10
2018-05-01T23:03:49.001Z,7.10
2018-05-01T23:06:17.284Z,7.20
2018-05-01T23:08:45.603Z,7.10
2018-05-01T23:11:14.649Z,7.10
2018-05-01T23:13:42.974Z,7.00
2018-05-01T23:16:12.025Z,7.00
2018-05-01T23:18:40.336Z,7.00
2018-05-01T23:21:08.644Z,6.90
2018-05-01T23:23:36.955Z,6.90
2018-05-01T23:26:05.236Z,6.80
2018-05-01T23:28:33.563Z,6.80
2018-05-01T23:31:02.604Z,6.80
2018-05-01T23:36:41.833Z,6.80
2018-05-01T23:39:10.141Z,6.80
2018-05-01T23:41:38.412Z,6.70
2018-05-01T23:44:06.730Z,6.60
2018-05-01T23:46:35.005Z,6.60
2018-05-01T23:49:03.329Z,6.50
2018-05-01T23:51:31.629Z,6.40
2018-05-01T23:53:59.957Z,6.10
2018-05-01T23:56:28.232Z,6.10
2018-05-01T23:58:57.368Z,6.20
